CheckWX is a tool to help pilots better visualize weather data.  It is not intended as a substitute for an official pre-flight weather briefing.

06:07:32 UTC

6I2 METAR
Lebanon Springfield-George Hoerter Field Airport
Springfield, Kentucky, USA
Current

38 mins ago

K6I2 250530Z AUTO 17010KT 10SM FEW080 15/03 A3000 RMK AO2
Observed
Mar-25 @ 05:30 UTC
Wind
  • 170° at 10 KTS
Visibility
10 SM
Flight Rules
VFR
Cloud Levels
  • Few at 8,000' AGL
Temperature
15°C / 59°F
Dewpoint
C / 37°F
Humidity
45%
Altimeter
30" Hg
Pressure
1015.92 hPa
Previous

58 mins ago

K6I2 250510Z AUTO 17010KT 10SM FEW090 15/03 A3000 RMK AO2
Observed
Mar-25 @ 05:10 UTC
Wind
  • 170° at 10 KTS
Visibility
10 SM
Flight Rules
VFR
Cloud Levels
  • Few at 9,000' AGL
Temperature
15°C / 59°F
Dewpoint
C / 37°F
Humidity
45%
Altimeter
30" Hg
Pressure
1015.92 hPa
Previous

1 hour ago

K6I2 250450Z AUTO 17008KT 10SM CLR 15/03 A3001 RMK AO2
Observed
Mar-25 @ 04:50 UTC
Wind
  • 170° at 8 KTS
Visibility
10 SM
Flight Rules
VFR
Cloud Levels
  • Clear skies
Temperature
15°C / 59°F
Dewpoint
C / 37°F
Humidity
45%
Altimeter
30.01" Hg
Pressure
1016.22 hPa